Time,TemperatureF,DewpointF,PressureIn,WindDirection,WindDirectionDegrees,WindSpeedMPH,WindSpeedGustMPH,Humidity,HourlyPrecipIn,Conditions,Clouds,dailyrainin,SoftwareType,DateUTC
2013-05-29 00:00:00,64.5,62.7,29.95,WNW,284,0.0,0.0,94,0.00,,BKN055,0.00,VWS V14.00,2013-05-29 04:00:00,
2013-05-29 00:01:00,64.5,62.7,29.95,WNW,284,0.0,0.0,94,0.00,,BKN055,0.00,VWS V14.00,2013-05-29 04:01:00,
2013-05-29 00:10:00,64.3,62.5,29.95,WNW,283,0.0,0.0,94,0.00,,BKN055,0.00,VWS V14.00,2013-05-29 04:10:00,
2013-05-29 00:11:00,64.3,62.5,29.95,WNW,283,0.0,0.0,94,0.00,,BKN055,0.00,VWS V14.00,2013-05-29 04:11:00,
2013-05-29 00:20:00,64.1,62.3,29.96,WNW,284,0.0,0.0,94,0.00,,BKN055,0.00,VWS V14.00,2013-05-29 04:20:00,
2013-05-29 00:21:00,64.1,62.3,29.96,WNW,284,0.0,0.0,94,0.00,,BKN055,0.00,VWS V14.00,2013-05-29 04:21:00,
2013-05-29 00:30:00,63.9,62.1,29.96,WNW,284,0.0,0.0,94,0.00,,BKN055,0.00,VWS V14.00,2013-05-29 04:30:00,
2013-05-29 00:31:00,63.9,62.1,29.96,WNW,284,0.0,0.0,94,0.00,,BKN055,0.00,VWS V14.00,2013-05-29 04:31:00,
2013-05-29 00:40:00,63.9,62.1,29.96,WNW,284,0.0,0.0,94,0.00,,BKN055,0.00,VWS V14.00,2013-05-29 04:40:00,
2013-05-29 00:41:00,63.9,62.1,29.96,WNW,284,0.0,0.0,94,0.00,,BKN055,0.00,VWS V14.00,2013-05-29 04:41:00,
2013-05-29 00:50:00,63.9,61.8,29.97,WNW,284,0.0,0.0,93,0.00,,BKN055,0.00,VWS V14.00,2013-05-29 04:50:00,
2013-05-29 00:51:00,63.9,61.8,29.97,WNW,284,0.0,0.0,93,0.00,,BKN055,0.00,VWS V14.00,2013-05-29 04:51:00,
2013-05-29 01:00:00,63.7,61.9,29.98,WNW,283,0.0,0.0,94,0.00,,BKN055,0.00,VWS V14.00,2013-05-29 05:00:00,
2013-05-29 01:01:00,63.7,62.0,29.98,WNW,283,0.0,0.0,94,0.00,,BKN055,0.00,VWS V14.00,2013-05-29 05:01:00,
2013-05-29 01:10:00,63.5,62.0,29.98,WNW,284,0.0,0.0,95,0.00,,BKN055,0.00,VWS V14.00,2013-05-29 05:10:00,
2013-05-29 01:11:00,63.5,62.0,29.98,WNW,284,0.0,0.0,95,0.00,,BKN055,0.00,VWS V14.00,2013-05-29 05:11:00,
2013-05-29 01:20:00,63.3,61.8,29.98,WNW,283,0.0,0.0,95,0.00,,BKN055,0.00,VWS V14.00,2013-05-29 05:20:00,
2013-05-29 01:21:00,63.3,61.8,29.98,WNW,283,0.0,0.0,95,0.00,,BKN055,0.00,VWS V14.00,2013-05-29 05:21:00,
2013-05-29 01:30:00,62.9,61.5,29.98,WNW,284,0.0,0.0,95,0.00,,BKN055,0.00,VWS V14.00,2013-05-29 05:30:00,
2013-05-29 01:31:00,62.9,61.5,29.98,WNW,284,0.0,0.0,95,0.00,,BKN055,0.00,VWS V14.00,2013-05-29 05:31:00,
2013-05-29 01:40:00,62.5,61.0,29.99,WNW,283,0.0,0.0,95,0.00,,BKN055,0.00,VWS V14.00,2013-05-29 05:40:00,
2013-05-29 01:41:00,62.5,61.0,29.99,WNW,283,0.0,0.0,95,0.00,,BKN055,0.00,VWS V14.00,2013-05-29 05:41:00,
2013-05-29 01:50:00,62.2,60.8,29.99,WNW,284,0.0,0.0,95,0.00,,BKN055,0.00,VWS V14.00,2013-05-29 05:50:00,
2013-05-29 01:51:00,62.2,60.8,29.99,WNW,284,0.0,0.0,95,0.00,,BKN055,0.00,VWS V14.00,2013-05-29 05:51:00,
2013-05-29 02:00:00,62.1,61.0,29.99,WNW,283,0.0,0.0,96,0.00,,BKN055,0.00,VWS V14.00,2013-05-29 06:00:00,
2013-05-29 02:01:00,62.1,61.0,29.99,WNW,283,0.0,0.0,96,0.00,,BKN055,0.00,VWS V14.00,2013-05-29 06:01:00,
2013-05-29 02:10:00,62.1,61.0,29.99,WNW,284,0.0,0.0,96,0.00,,BKN055,0.00,VWS V14.00,2013-05-29 06:10:00,
2013-05-29 02:11:00,62.1,61.0,29.99,WNW,284,0.0,0.0,96,0.00,,BKN055,0.00,VWS V14.00,2013-05-29 06:11:00,
2013-05-29 02:20:00,61.8,60.7,30.00,WNW,283,0.0,0.0,96,0.00,,BKN055,0.00,VWS V14.00,2013-05-29 06:20:00,
2013-05-29 02:21:00,61.8,60.7,30.00,WNW,283,0.0,0.0,96,0.00,,BKN055,0.00,VWS V14.00,2013-05-29 06:21:00,
2013-05-29 02:30:00,61.4,60.2,30.00,WNW,284,0.0,0.0,96,0.00,,BKN055,0.00,VWS V14.00,2013-05-29 06:30:00,
2013-05-29 02:31:00,61.4,60.2,30.00,WNW,284,0.0,0.0,96,0.00,,BKN055,0.00,VWS V14.00,2013-05-29 06:31:00,
2013-05-29 02:40:00,61.2,60.0,30.00,WNW,283,0.0,0.0,96,0.00,,BKN055,0.00,VWS V14.00,2013-05-29 06:40:00,
2013-05-29 02:41:00,61.2,60.0,30.00,WNW,283,0.0,0.0,96,0.00,,BKN055,0.00,VWS V14.00,2013-05-29 06:41:00,
2013-05-29 02:50:00,61.1,60.0,30.00,WNW,284,0.0,0.0,96,0.00,,BKN055,0.00,VWS V14.00,2013-05-29 06:50:00,
2013-05-29 02:51:00,61.1,60.0,30.00,WNW,284,0.0,0.0,96,0.00,,BKN055,0.00,VWS V14.00,2013-05-29 06:51:00,
2013-05-29 03:00:00,60.7,59.6,29.99,WNW,284,0.0,0.0,96,0.00,,BKN055,0.00,VWS V14.00,2013-05-29 07:00:00,
2013-05-29 03:01:00,60.7,59.6,29.99,WNW,284,0.0,0.0,96,0.00,,BKN055,0.00,VWS V14.00,2013-05-29 07:01:00,
2013-05-29 03:10:00,60.6,59.8,29.99,WNW,284,0.0,0.0,97,0.00,,BKN055,0.00,VWS V14.00,2013-05-29 07:10:00,
2013-05-29 03:11:00,60.6,59.8,29.99,WNW,284,0.0,0.0,97,0.00,,BKN055,0.00,VWS V14.00,2013-05-29 07:11:00,
2013-05-29 03:20:00,60.9,60.3,29.99,WNW,284,0.0,0.0,98,0.00,,BKN055,0.00,VWS V14.00,2013-05-29 07:20:00,
2013-05-29 03:21:00,60.9,60.3,29.99,WNW,284,0.0,0.0,98,0.00,,BKN055,0.00,VWS V14.00,2013-05-29 07:21:00,
2013-05-29 03:30:00,61.3,60.7,29.99,WNW,283,0.0,0.0,98,0.00,,BKN055,0.00,VWS V14.00,2013-05-29 07:30:00,
2013-05-29 03:31:00,61.3,60.7,29.99,WNW,283,0.0,0.0,98,0.00,,BKN055,0.00,VWS V14.00,2013-05-29 07:31:00,
2013-05-29 03:40:00,62.4,62.1,29.99,WNW,284,0.0,1.0,99,0.00,,BKN055,0.00,VWS V14.00,2013-05-29 07:40:00,
2013-05-29 03:41:00,62.4,62.1,29.99,WNW,284,0.0,1.0,99,0.00,,BKN055,0.00,VWS V14.00,2013-05-29 07:41:00,
2013-05-29 03:50:00,63.2,62.9,29.99,WNW,283,0.0,0.0,99,0.00,,BKN055,0.00,VWS V14.00,2013-05-29 07:50:00,
2013-05-29 03:51:00,63.2,62.9,29.99,WNW,283,0.0,0.0,99,0.00,,BKN055,0.00,VWS V14.00,2013-05-29 07:51:00,
2013-05-29 04:00:00,63.6,63.3,30.00,WNW,284,0.0,2.0,99,0.00,,BKN055,0.00,VWS V14.00,2013-05-29 08:00:00,
2013-05-29 04:01:00,63.6,63.3,30.00,WNW,284,0.0,2.0,99,0.00,,BKN055,0.00,VWS V14.00,2013-05-29 08:01:00,
2013-05-29 04:10:00,64.1,63.5,30.00,WSW,254,0.0,1.0,98,0.00,,BKN055,0.00,VWS V14.00,2013-05-29 08:10:00,
2013-05-29 04:11:00,64.1,63.5,30.00,WSW,254,0.0,1.0,98,0.00,,BKN055,0.00,VWS V14.00,2013-05-29 08:11:00,
2013-05-29 04:20:00,64.8,63.3,30.00,SW,233,0.0,2.0,95,0.00,,BKN055,0.00,VWS V14.00,2013-05-29 08:20:00,
2013-05-29 04:21:00,64.8,63.3,30.00,SW,233,0.0,2.0,95,0.00,,BKN055,0.00,VWS V14.00,2013-05-29 08:21:00,
2013-05-29 04:30:00,65.3,63.2,30.00,South,190,0.0,2.0,93,0.00,,BKN055,0.00,VWS V14.00,2013-05-29 08:30:00,
2013-05-29 04:31:00,65.3,63.2,30.00,South,190,0.0,2.0,93,0.00,,BKN055,0.00,VWS V14.00,2013-05-29 08:31:00,
2013-05-29 04:40:00,65.9,63.5,30.00,SW,228,0.0,3.0,92,0.00,,BKN055,0.00,VWS V14.00,2013-05-29 08:40:00,
2013-05-29 04:41:00,65.9,63.5,30.00,SW,228,0.0,3.0,92,0.00,,BKN055,0.00,VWS V14.00,2013-05-29 08:41:00,
2013-05-29 04:50:00,66.4,63.4,30.00,WSW,246,0.0,4.0,90,0.00,,BKN055,0.00,VWS V14.00,2013-05-29 08:50:00,
2013-05-29 04:51:00,66.4,63.4,30.00,WSW,246,0.0,4.0,90,0.00,,BKN055,0.00,VWS V14.00,2013-05-29 08:51:00,
2013-05-29 05:00:00,66.7,63.4,29.99,WSW,248,0.0,4.0,89,0.00,,BKN055,0.00,VWS V14.00,2013-05-29 09:00:00,
2013-05-29 05:01:00,66.7,63.4,29.99,WSW,248,0.0,4.0,89,0.00,,BKN055,0.00,VWS V14.00,2013-05-29 09:01:00,
2013-05-29 05:10:00,67.1,63.4,29.99,WSW,246,0.0,4.0,88,0.00,,BKN055,0.00,VWS V14.00,2013-05-29 09:10:00,
2013-05-29 05:11:00,67.1,63.4,29.99,WSW,246,0.0,4.0,88,0.00,,BKN055,0.00,VWS V14.00,2013-05-29 09:11:00,
2013-05-29 05:20:00,67.5,63.2,29.99,WSW,248,0.0,5.0,86,0.00,,BKN055,0.00,VWS V14.00,2013-05-29 09:20:00,
2013-05-29 05:21:00,67.5,63.2,29.99,WSW,248,0.0,5.0,86,0.00,,BKN055,0.00,VWS V14.00,2013-05-29 09:21:00,
2013-05-29 05:30:00,67.7,63.0,30.00,WSW,256,0.0,3.0,85,0.00,,BKN055,0.00,VWS V14.00,2013-05-29 09:30:00,
2013-05-29 05:31:00,67.7,63.0,30.00,WSW,256,0.0,3.0,85,0.00,,BKN055,0.00,VWS V14.00,2013-05-29 09:31:00,
2013-05-29 05:40:00,67.9,62.9,30.00,West,261,0.0,3.0,84,0.00,,BKN055,0.00,VWS V14.00,2013-05-29 09:40:00,
2013-05-29 05:41:00,67.9,62.9,30.00,West,261,0.0,3.0,84,0.00,,BKN055,0.00,VWS V14.00,2013-05-29 09:41:00,
2013-05-29 05:50:00,68.1,63.1,30.00,SW,233,0.0,5.0,84,0.00,,BKN055,0.00,VWS V14.00,2013-05-29 09:50:00,
2013-05-29 05:51:00,68.1,63.1,30.00,SW,233,0.0,5.0,84,0.00,,BKN055,0.00,VWS V14.00,2013-05-29 09:51:00,
2013-05-29 06:00:00,68.2,63.2,30.01,SW,236,0.0,1.0,84,0.00,,BKN055,0.00,VWS V14.00,2013-05-29 10:00:00,
2013-05-29 06:01:00,68.2,63.2,30.01,SW,236,0.0,1.0,84,0.00,,BKN055,0.00,VWS V14.00,2013-05-29 10:01:00,
2013-05-29 06:10:00,68.1,63.8,30.01,WSW,238,0.0,2.0,86,0.00,,BKN055,0.00,VWS V14.00,2013-05-29 10:10:00,
2013-05-29 06:11:00,68.1,63.8,30.01,WSW,238,0.0,2.0,86,0.00,,BKN055,0.00,VWS V14.00,2013-05-29 10:11:00,
2013-05-29 06:20:00,67.9,63.6,30.01,West,260,0.0,4.0,86,0.00,,BKN055,0.00,VWS V14.00,2013-05-29 10:20:00,
2013-05-29 06:21:00,67.9,63.6,30.01,West,260,0.0,4.0,86,0.00,,BKN055,0.00,VWS V14.00,2013-05-29 10:21:00,
2013-05-29 06:30:00,67.6,63.6,30.01,West,261,0.0,1.0,87,0.00,,BKN055,0.00,VWS V14.00,2013-05-29 10:30:00,
2013-05-29 06:31:00,67.6,63.6,30.01,West,261,0.0,1.0,87,0.00,,BKN055,0.00,VWS V14.00,2013-05-29 10:31:00,
2013-05-29 06:40:00,67.2,63.5,30.01,West,281,0.0,3.0,88,0.00,,BKN055,0.00,VWS V14.00,2013-05-29 10:40:00,
2013-05-29 06:41:00,67.2,63.5,30.01,West,281,0.0,3.0,88,0.00,,BKN055,0.00,VWS V14.00,2013-05-29 10:41:00,
2013-05-29 06:50:00,67.4,63.7,30.02,West,269,0.0,1.0,88,0.00,,BKN055,0.00,VWS V14.00,2013-05-29 10:50:00,
2013-05-29 06:51:00,67.4,63.7,30.02,West,269,0.0,1.0,88,0.00,,BKN055,0.00,VWS V14.00,2013-05-29 10:51:00,
2013-05-29 07:00:00,67.9,63.9,30.02,WNW,292,0.0,2.0,87,0.00,,BKN055,0.00,VWS V14.00,2013-05-29 11:00:00,
2013-05-29 07:01:00,67.9,63.9,30.02,WNW,292,0.0,2.0,87,0.00,,BKN055,0.00,VWS V14.00,2013-05-29 11:01:00,
2013-05-29 07:10:00,68.5,63.8,30.03,WSW,257,0.0,3.0,85,0.00,,BKN055,0.00,VWS V14.00,2013-05-29 11:10:00,
2013-05-29 07:11:00,68.5,63.8,30.03,WSW,257,0.0,3.0,85,0.00,,BKN055,0.00,VWS V14.00,2013-05-29 11:11:00,
2013-05-29 07:20:00,69.1,64.1,30.03,West,279,0.0,5.0,84,0.00,,BKN055,0.00,VWS V14.00,2013-05-29 11:20:00,
2013-05-29 07:21:00,69.1,64.1,30.03,West,279,0.0,5.0,84,0.00,,BKN055,0.00,VWS V14.00,2013-05-29 11:21:00,
2013-05-29 07:30:00,69.5,64.1,30.04,SW,230,0.0,4.0,83,0.00,,BKN055,0.00,VWS V14.00,2013-05-29 11:30:00,
2013-05-29 07:31:00,69.5,64.1,30.04,SW,230,0.0,4.0,83,0.00,,BKN055,0.00,VWS V14.00,2013-05-29 11:31:00,
2013-05-29 07:40:00,69.8,64.4,30.04,West,261,0.0,2.0,83,0.00,,BKN055,0.00,VWS V14.00,2013-05-29 11:40:00,
2013-05-29 07:41:00,69.8,64.4,30.04,West,261,0.0,2.0,83,0.00,,BKN055,0.00,VWS V14.00,2013-05-29 11:41:00,
2013-05-29 07:50:00,70.1,64.7,30.04,SSE,163,2.0,4.0,83,0.00,,BKN055,0.00,VWS V14.00,2013-05-29 11:50:00,
2013-05-29 07:51:00,70.1,64.7,30.04,SSE,163,2.0,4.0,83,0.00,,BKN055,0.00,VWS V14.00,2013-05-29 11:51:00,
2013-05-29 08:00:00,70.4,65.0,30.04,SSE,150,0.0,3.0,83,0.00,,BKN055,0.00,VWS V14.00,2013-05-29 12:00:00,
2013-05-29 08:01:00,70.4,65.0,30.04,SSE,150,0.0,3.0,83,0.00,,BKN055,0.00,VWS V14.00,2013-05-29 12:01:00,
2013-05-29 08:10:00,71.1,67.0,30.04,WSW,244,0.0,1.0,87,0.00,,BKN055,0.00,VWS V14.00,2013-05-29 12:10:00,
2013-05-29 08:11:00,71.1,67.0,30.04,WSW,244,0.0,1.0,87,0.00,,BKN055,0.00,VWS V14.00,2013-05-29 12:11:00,
2013-05-29 08:20:00,71.6,66.9,30.04,SW,227,0.0,4.0,85,0.00,,BKN055,0.00,VWS V14.00,2013-05-29 12:20:00,
2013-05-29 08:21:00,71.6,66.9,30.04,SW,227,0.0,4.0,85,0.00,,BKN055,0.00,VWS V14.00,2013-05-29 12:21:00,
2013-05-29 08:30:00,71.9,66.8,30.04,WSW,252,0.0,3.0,84,0.00,,BKN055,0.00,VWS V14.00,2013-05-29 12:30:00,
2013-05-29 08:31:00,71.9,66.8,30.04,WSW,252,0.0,3.0,84,0.00,,BKN055,0.00,VWS V14.00,2013-05-29 12:31:00,
2013-05-29 08:40:00,72.4,66.6,30.04,SW,216,0.0,2.0,82,0.00,,BKN055,0.00,VWS V14.00,2013-05-29 12:40:00,
2013-05-29 08:41:00,72.4,66.6,30.04,SW,216,0.0,2.0,82,0.00,,BKN055,0.00,VWS V14.00,2013-05-29 12:41:00,
2013-05-29 08:50:00,73.0,67.5,30.05,NNW,327,0.0,6.0,83,0.00,,BKN055,0.00,VWS V14.00,2013-05-29 12:50:00,
2013-05-29 08:51:00,73.0,67.5,30.05,NNW,327,0.0,6.0,83,0.00,,BKN055,0.00,VWS V14.00,2013-05-29 12:51:00,
2013-05-29 09:00:00,74.4,68.6,30.04,WNW,286,0.0,3.0,82,0.00,,BKN055,0.00,VWS V14.00,2013-05-29 13:00:00,
2013-05-29 09:01:00,74.4,68.6,30.04,WNW,286,0.0,3.0,82,0.00,,BKN055,0.00,VWS V14.00,2013-05-29 13:01:00,
2013-05-29 09:10:00,75.4,69.2,30.04,West,281,3.0,4.0,81,0.00,,BKN055,0.00,VWS V14.00,2013-05-29 13:10:00,
2013-05-29 09:11:00,75.4,69.2,30.04,West,281,3.0,4.0,81,0.00,,BKN055,0.00,VWS V14.00,2013-05-29 13:11:00,
2013-05-29 09:20:00,75.7,69.1,30.04,South,174,0.0,4.0,80,0.00,,BKN055,0.00,VWS V14.00,2013-05-29 13:20:00,
2013-05-29 09:21:00,75.7,69.1,30.04,South,174,0.0,4.0,80,0.00,,BKN055,0.00,VWS V14.00,2013-05-29 13:21:00,
2013-05-29 09:30:00,76.5,69.5,30.04,West,279,0.0,5.0,79,0.00,,BKN055,0.00,VWS V14.00,2013-05-29 13:30:00,
2013-05-29 09:31:00,76.5,69.5,30.04,West,279,0.0,5.0,79,0.00,,BKN055,0.00,VWS V14.00,2013-05-29 13:31:00,
2013-05-29 09:40:00,76.9,69.2,30.04,South,183,0.0,4.0,77,0.00,,BKN055,0.00,VWS V14.00,2013-05-29 13:40:00,
2013-05-29 09:41:00,76.9,69.2,30.04,South,183,0.0,4.0,77,0.00,,BKN055,0.00,VWS V14.00,2013-05-29 13:41:00,
2013-05-29 09:50:00,78.0,70.2,30.04,West,280,4.0,7.0,77,0.00,,BKN055,0.00,VWS V14.00,2013-05-29 13:50:00,
2013-05-29 09:51:00,78.0,70.2,30.04,West,280,4.0,7.0,77,0.00,,BKN055,0.00,VWS V14.00,2013-05-29 13:51:00,
2013-05-29 10:00:00,78.0,68.7,30.04,SW,215,0.0,5.0,73,0.00,,BKN055,0.00,VWS V14.00,2013-05-29 14:00:00,
2013-05-29 10:01:00,78.0,68.7,30.04,SW,215,0.0,5.0,73,0.00,,BKN055,0.00,VWS V14.00,2013-05-29 14:01:00,
2013-05-29 10:10:00,78.2,69.2,30.04,West,271,0.0,6.0,74,0.00,,BKN055,0.00,VWS V14.00,2013-05-29 14:10:00,
2013-05-29 10:11:00,78.2,69.2,30.04,West,271,0.0,6.0,74,0.00,,BKN055,0.00,VWS V14.00,2013-05-29 14:11:00,
2013-05-29 10:20:00,78.7,69.3,30.04,NW,314,0.0,6.0,73,0.00,,BKN055,0.00,VWS V14.00,2013-05-29 14:20:00,
2013-05-29 10:21:00,78.7,69.3,30.04,NW,314,0.0,6.0,73,0.00,,BKN055,0.00,VWS V14.00,2013-05-29 14:21:00,
2013-05-29 10:30:00,79.4,69.6,30.04,West,259,2.0,7.0,72,0.00,,BKN055,0.00,VWS V14.00,2013-05-29 14:30:00,
2013-05-29 10:31:00,79.4,69.6,30.04,West,259,2.0,7.0,72,0.00,,BKN055,0.00,VWS V14.00,2013-05-29 14:31:00,
2013-05-29 10:41:00,80.1,69.0,30.04,West,273,0.0,5.0,69,0.00,,BKN055,0.00,VWS V14.00,2013-05-29 14:41:00,
2013-05-29 10:50:00,80.4,69.3,30.04,SSE,163,0.0,6.0,69,0.00,,BKN055,0.00,VWS V14.00,2013-05-29 14:50:00,
2013-05-29 10:51:00,80.4,69.3,30.04,SSE,163,0.0,6.0,69,0.00,,BKN055,0.00,VWS V14.00,2013-05-29 14:51:00,
2013-05-29 11:00:00,80.4,71.0,30.04,WSW,240,0.0,7.0,73,0.00,,BKN055,0.00,VWS V14.00,2013-05-29 15:00:00,
2013-05-29 11:01:00,80.4,71.0,30.04,WSW,240,0.0,7.0,73,0.00,,BKN055,0.00,VWS V14.00,2013-05-29 15:01:00,
2013-05-29 11:10:00,80.8,70.9,30.04,West,269,3.0,8.0,72,0.00,,BKN055,0.00,VWS V14.00,2013-05-29 15:10:00,
2013-05-29 11:11:00,80.8,70.9,30.04,West,269,3.0,8.0,72,0.00,,BKN055,0.00,VWS V14.00,2013-05-29 15:11:00,
2013-05-29 11:20:00,81.2,71.3,30.04,West,268,0.0,5.0,72,0.00,,BKN055,0.00,VWS V14.00,2013-05-29 15:20:00,
2013-05-29 11:21:00,81.2,71.3,30.04,West,268,0.0,5.0,72,0.00,,BKN055,0.00,VWS V14.00,2013-05-29 15:21:00,
2013-05-29 11:30:00,81.4,69.8,30.04,WSW,241,4.0,10.0,68,0.00,,BKN055,0.00,VWS V14.00,2013-05-29 15:30:00,
2013-05-29 11:31:00,81.4,69.8,30.04,WSW,241,4.0,10.0,68,0.00,,BKN055,0.00,VWS V14.00,2013-05-29 15:31:00,
2013-05-29 11:40:00,81.3,69.7,30.04,WSW,240,0.0,13.0,68,0.00,,BKN055,0.00,VWS V14.00,2013-05-29 15:40:00,
2013-05-29 11:41:00,81.3,69.7,30.04,WSW,240,0.0,13.0,68,0.00,,BKN055,0.00,VWS V14.00,2013-05-29 15:41:00,
2013-05-29 11:50:00,81.9,71.6,30.04,West,271,1.0,9.0,71,0.00,,BKN055,0.00,VWS V14.00,2013-05-29 15:50:00,
2013-05-29 11:51:00,81.9,71.6,30.04,West,271,1.0,9.0,71,0.00,,BKN055,0.00,VWS V14.00,2013-05-29 15:51:00,
2013-05-29 12:00:00,81.9,68.1,30.04,WNW,284,0.0,7.0,63,0.00,,BKN055,0.00,VWS V14.00,2013-05-29 16:00:00,
2013-05-29 12:01:00,81.9,68.1,30.04,WNW,284,0.0,7.0,63,0.00,,BKN055,0.00,VWS V14.00,2013-05-29 16:01:00,
2013-05-29 12:10:00,82.1,68.7,30.04,South,183,0.0,11.0,64,0.00,,BKN055,0.00,VWS V14.00,2013-05-29 16:10:00,
2013-05-29 12:11:00,82.1,68.7,30.04,South,183,0.0,11.0,64,0.00,,BKN055,0.00,VWS V14.00,2013-05-29 16:11:00,
2013-05-29 12:20:00,82.1,70.1,30.04,West,274,0.0,9.0,67,0.00,,BKN055,0.00,VWS V14.00,2013-05-29 16:20:00,
2013-05-29 12:21:00,82.1,70.1,30.04,West,274,0.0,9.0,67,0.00,,BKN055,0.00,VWS V14.00,2013-05-29 16:21:00,
2013-05-29 12:30:00,82.7,68.8,30.04,WSW,242,4.0,7.0,63,0.00,,BKN055,0.00,VWS V14.00,2013-05-29 16:30:00,
2013-05-29 12:31:00,82.7,68.8,30.04,WSW,242,4.0,7.0,63,0.00,,BKN055,0.00,VWS V14.00,2013-05-29 16:31:00,
2013-05-29 12:40:00,83.1,67.3,30.04,West,261,2.0,10.0,59,0.00,,BKN055,0.00,VWS V14.00,2013-05-29 16:40:00,
2013-05-29 12:41:00,83.1,67.3,30.04,West,261,2.0,10.0,59,0.00,,BKN055,0.00,VWS V14.00,2013-05-29 16:41:00,
2013-05-29 12:50:00,82.6,66.3,30.03,SW,222,0.0,8.0,58,0.00,,BKN055,0.00,VWS V14.00,2013-05-29 16:50:00,
2013-05-29 12:51:00,82.6,66.3,30.03,SW,222,0.0,8.0,58,0.00,,BKN055,0.00,VWS V14.00,2013-05-29 16:51:00,
2013-05-29 13:00:00,82.6,67.3,30.04,WNW,283,0.0,11.0,60,0.00,,BKN055,0.00,VWS V14.00,2013-05-29 17:00:00,
2013-05-29 13:01:00,82.6,67.3,30.04,WNW,283,0.0,11.0,60,0.00,,BKN055,0.00,VWS V14.00,2013-05-29 17:01:00,
2013-05-29 13:10:00,82.5,66.7,30.04,SW,227,6.0,14.0,59,0.00,,BKN055,0.00,VWS V14.00,2013-05-29 17:10:00,
2013-05-29 13:11:00,82.5,66.7,30.04,SW,227,6.0,14.0,59,0.00,,BKN055,0.00,VWS V14.00,2013-05-29 17:11:00,
2013-05-29 13:20:00,82.4,66.7,30.04,West,264,0.0,12.0,59,0.00,,BKN055,0.00,VWS V14.00,2013-05-29 17:20:00,
2013-05-29 13:21:00,82.4,66.7,30.04,West,264,0.0,12.0,59,0.00,,BKN055,0.00,VWS V14.00,2013-05-29 17:21:00,
2013-05-29 13:30:00,82.6,67.8,30.03,West,261,5.0,7.0,61,0.00,,BKN055,0.00,VWS V14.00,2013-05-29 17:30:00,
2013-05-29 13:31:00,82.6,67.8,30.03,West,261,5.0,7.0,61,0.00,,BKN055,0.00,VWS V14.00,2013-05-29 17:31:00,
2013-05-29 13:40:00,83.4,67.1,30.03,West,264,0.0,10.0,58,0.00,,BKN055,0.00,VWS V14.00,2013-05-29 17:40:00,
2013-05-29 13:41:00,83.4,67.1,30.03,West,264,0.0,10.0,58,0.00,,BKN055,0.00,VWS V14.00,2013-05-29 17:41:00,
2013-05-29 13:50:00,83.6,66.8,30.03,WSW,255,0.0,7.0,57,0.00,,BKN055,0.00,VWS V14.00,2013-05-29 17:50:00,
2013-05-29 13:51:00,83.6,66.8,30.03,WSW,255,0.0,7.0,57,0.00,,BKN055,0.00,VWS V14.00,2013-05-29 17:51:00,
2013-05-29 14:00:00,83.8,70.3,30.02,SSW,196,2.0,6.0,64,0.00,,BKN055,0.00,VWS V14.00,2013-05-29 18:00:00,
2013-05-29 14:01:00,83.8,70.3,30.02,SSW,196,2.0,6.0,64,0.00,,BKN055,0.00,VWS V14.00,2013-05-29 18:01:00,
2013-05-29 14:10:00,84.5,68.6,30.02,WNW,295,0.0,6.0,59,0.00,,BKN055,0.00,VWS V14.00,2013-05-29 18:10:00,
2013-05-29 14:11:00,84.5,68.6,30.02,WNW,295,0.0,6.0,59,0.00,,BKN055,0.00,VWS V14.00,2013-05-29 18:11:00,
2013-05-29 14:20:00,84.6,67.7,30.02,NW,307,0.0,5.0,57,0.00,,BKN055,0.00,VWS V14.00,2013-05-29 18:20:00,
2013-05-29 14:21:00,84.6,67.7,30.02,NW,307,0.0,5.0,57,0.00,,BKN055,0.00,VWS V14.00,2013-05-29 18:21:00,
2013-05-29 14:30:00,84.7,66.8,30.01,South,186,0.0,11.0,55,0.00,,BKN055,0.00,VWS V14.00,2013-05-29 18:30:00,
2013-05-29 14:31:00,84.7,66.8,30.01,South,186,0.0,11.0,55,0.00,,BKN055,0.00,VWS V14.00,2013-05-29 18:31:00,
2013-05-29 14:40:00,85.0,68.6,30.01,SW,218,0.0,4.0,58,0.00,,BKN055,0.00,VWS V14.00,2013-05-29 18:40:00,
2013-05-29 14:41:00,85.0,68.6,30.01,SW,218,0.0,4.0,58,0.00,,BKN055,0.00,VWS V14.00,2013-05-29 18:41:00,
2013-05-29 14:50:00,85.4,67.9,30.01,West,267,0.0,8.0,56,0.00,,BKN055,0.00,VWS V14.00,2013-05-29 18:50:00,
2013-05-29 14:51:00,85.4,67.9,30.01,West,267,0.0,8.0,56,0.00,,BKN055,0.00,VWS V14.00,2013-05-29 18:51:00,
2013-05-29 15:00:00,85.6,67.6,30.01,WNW,292,0.0,7.0,55,0.00,,BKN055,0.00,VWS V14.00,2013-05-29 19:00:00,
2013-05-29 15:01:00,85.6,67.6,30.01,WNW,292,0.0,7.0,55,0.00,,BKN055,0.00,VWS V14.00,2013-05-29 19:01:00,
2013-05-29 15:10:00,85.7,66.6,30.01,WSW,255,0.0,9.0,53,0.00,,BKN055,0.00,VWS V14.00,2013-05-29 19:10:00,
2013-05-29 15:11:00,85.7,66.6,30.01,WSW,255,0.0,9.0,53,0.00,,BKN055,0.00,VWS V14.00,2013-05-29 19:11:00,
2013-05-29 15:20:00,85.8,67.8,30.01,WSW,249,6.0,11.0,55,0.00,,BKN055,0.00,VWS V14.00,2013-05-29 19:20:00,
2013-05-29 15:21:00,85.8,67.8,30.01,WSW,249,6.0,11.0,55,0.00,,BKN055,0.00,VWS V14.00,2013-05-29 19:21:00,
2013-05-29 15:30:00,86.1,70.1,30.01,WSW,247,4.0,12.0,59,0.00,,BKN055,0.00,VWS V14.00,2013-05-29 19:30:00,
2013-05-29 15:31:00,86.1,70.1,30.01,WSW,247,4.0,12.0,59,0.00,,BKN055,0.00,VWS V14.00,2013-05-29 19:31:00,
2013-05-29 15:40:00,85.9,67.9,30.01,WNW,286,0.0,6.0,55,0.00,,BKN055,0.00,VWS V14.00,2013-05-29 19:40:00,
2013-05-29 15:41:00,85.9,67.9,30.01,WNW,286,0.0,6.0,55,0.00,,BKN055,0.00,VWS V14.00,2013-05-29 19:41:00,
2013-05-29 15:50:00,86.3,70.8,30.00,West,260,0.0,6.0,60,0.00,,BKN055,0.00,VWS V14.00,2013-05-29 19:50:00,
2013-05-29 15:51:00,86.3,70.8,30.00,West,260,0.0,6.0,60,0.00,,BKN055,0.00,VWS V14.00,2013-05-29 19:51:00,
2013-05-29 16:00:00,86.9,69.3,30.00,WSW,253,0.0,9.0,56,0.00,,BKN055,0.00,VWS V14.00,2013-05-29 20:00:00,
2013-05-29 16:01:00,86.9,69.3,30.00,WSW,253,0.0,9.0,56,0.00,,BKN055,0.00,VWS V14.00,2013-05-29 20:01:00,
2013-05-29 16:10:00,87.0,68.9,30.00,SW,225,0.0,7.0,55,0.00,,BKN055,0.00,VWS V14.00,2013-05-29 20:10:00,
2013-05-29 16:11:00,87.0,68.9,30.00,SW,225,0.0,7.0,55,0.00,,BKN055,0.00,VWS V14.00,2013-05-29 20:11:00,
2013-05-29 16:20:00,87.1,69.0,30.00,SSW,208,1.0,10.0,55,0.00,,BKN055,0.00,VWS V14.00,2013-05-29 20:20:00,
2013-05-29 16:21:00,87.1,69.0,30.00,SSW,208,1.0,10.0,55,0.00,,BKN055,0.00,VWS V14.00,2013-05-29 20:21:00,
2013-05-29 16:30:00,86.1,70.1,30.00,WSW,246,0.0,5.0,59,0.00,,BKN055,0.00,VWS V14.00,2013-05-29 20:30:00,
2013-05-29 16:31:00,86.1,70.1,30.00,WSW,246,0.0,5.0,59,0.00,,BKN055,0.00,VWS V14.00,2013-05-29 20:31:00,
2013-05-29 16:40:00,86.3,70.8,29.99,SSW,198,0.0,7.0,60,0.00,,BKN055,0.00,VWS V14.00,2013-05-29 20:40:00,
2013-05-29 16:41:00,86.3,70.8,29.99,SSW,198,0.0,7.0,60,0.00,,BKN055,0.00,VWS V14.00,2013-05-29 20:41:00,
2013-05-29 16:50:00,85.8,72.7,29.99,West,264,0.0,4.0,65,0.00,,BKN055,0.00,VWS V14.00,2013-05-29 20:50:00,
2013-05-29 16:51:00,85.8,72.7,29.99,West,264,0.0,4.0,65,0.00,,BKN055,0.00,VWS V14.00,2013-05-29 20:51:00,
2013-05-29 17:00:00,86.7,71.2,29.99,NNW,331,0.0,2.0,60,0.00,,BKN055,0.00,VWS V14.00,2013-05-29 21:00:00,
2013-05-29 17:01:00,86.7,71.2,29.99,NNW,331,0.0,2.0,60,0.00,,BKN055,0.00,VWS V14.00,2013-05-29 21:01:00,
2013-05-29 17:10:00,87.0,68.9,29.99,South,169,0.0,7.0,55,0.00,,BKN055,0.00,VWS V14.00,2013-05-29 21:10:00,
2013-05-29 17:11:00,87.0,68.9,29.99,South,169,0.0,7.0,55,0.00,,BKN055,0.00,VWS V14.00,2013-05-29 21:11:00,
2013-05-29 17:20:00,87.1,71.5,29.98,SW,219,1.0,5.0,60,0.00,,BKN055,0.00,VWS V14.00,2013-05-29 21:20:00,
2013-05-29 17:21:00,87.1,71.5,29.98,SW,219,1.0,5.0,60,0.00,,BKN055,0.00,VWS V14.00,2013-05-29 21:21:00,
2013-05-29 17:30:00,86.8,69.8,29.98,West,265,0.0,11.0,57,0.00,,BKN055,0.00,VWS V14.00,2013-05-29 21:30:00,
2013-05-29 17:31:00,86.8,69.8,29.98,West,265,0.0,11.0,57,0.00,,BKN055,0.00,VWS V14.00,2013-05-29 21:31:00,
2013-05-29 17:40:00,87.1,72.5,29.98,WSW,252,5.0,6.0,62,0.00,,BKN055,0.00,VWS V14.00,2013-05-29 21:40:00,
2013-05-29 17:41:00,87.1,72.5,29.98,WSW,252,5.0,6.0,62,0.00,,BKN055,0.00,VWS V14.00,2013-05-29 21:41:00,
2013-05-29 17:50:00,87.3,70.7,29.98,South,190,0.0,6.0,58,0.00,,BKN055,0.00,VWS V14.00,2013-05-29 21:50:00,
2013-05-29 17:51:00,87.3,70.7,29.98,South,190,0.0,6.0,58,0.00,,BKN055,0.00,VWS V14.00,2013-05-29 21:51:00,
2013-05-29 18:00:00,87.1,68.4,29.97,West,261,1.0,7.0,54,0.00,,BKN055,0.00,VWS V14.00,2013-05-29 22:00:00,
2013-05-29 18:01:00,87.1,68.4,29.97,West,261,1.0,7.0,54,0.00,,BKN055,0.00,VWS V14.00,2013-05-29 22:01:00,
2013-05-29 18:10:00,86.5,70.5,29.97,WSW,250,0.0,6.0,59,0.00,,BKN055,0.00,VWS V14.00,2013-05-29 22:10:00,
2013-05-29 18:11:00,86.5,70.5,29.97,WSW,250,0.0,6.0,59,0.00,,BKN055,0.00,VWS V14.00,2013-05-29 22:11:00,
2013-05-29 18:20:00,86.1,70.6,29.97,SW,217,0.0,9.0,60,0.00,,BKN055,0.00,VWS V14.00,2013-05-29 22:20:00,
2013-05-29 18:21:00,86.1,70.6,29.97,SW,217,0.0,9.0,60,0.00,,BKN055,0.00,VWS V14.00,2013-05-29 22:21:00,
2013-05-29 18:30:00,86.1,70.1,29.98,SE,145,0.0,2.0,59,0.00,,BKN055,0.00,VWS V14.00,2013-05-29 22:30:00,
2013-05-29 18:31:00,86.1,70.1,29.98,SE,145,0.0,2.0,59,0.00,,BKN055,0.00,VWS V14.00,2013-05-29 22:31:00,
2013-05-29 18:40:00,86.1,73.4,29.97,SSW,211,0.0,1.0,66,0.00,,BKN055,0.00,VWS V14.00,2013-05-29 22:40:00,
2013-05-29 18:41:00,86.1,73.4,29.97,SSW,211,0.0,1.0,66,0.00,,BKN055,0.00,VWS V14.00,2013-05-29 22:41:00,
2013-05-29 18:50:00,86.3,72.7,29.97,ESE,115,0.0,1.0,64,0.00,,BKN055,0.00,VWS V14.00,2013-05-29 22:50:00,
2013-05-29 18:51:00,86.3,72.7,29.97,ESE,115,0.0,1.0,64,0.00,,BKN055,0.00,VWS V14.00,2013-05-29 22:51:00,
2013-05-29 19:00:00,85.8,72.2,29.97,ESE,123,0.0,1.0,64,0.00,,BKN055,0.00,VWS V14.00,2013-05-29 23:00:00,
2013-05-29 19:01:00,85.8,72.2,29.97,ESE,123,0.0,1.0,64,0.00,,BKN055,0.00,VWS V14.00,2013-05-29 23:01:00,
2013-05-29 19:10:00,85.4,70.9,29.97,ESE,123,0.0,0.0,62,0.00,,BKN055,0.00,VWS V14.00,2013-05-29 23:10:00,
2013-05-29 19:11:00,85.4,70.9,29.97,ESE,123,0.0,0.0,62,0.00,,BKN055,0.00,VWS V14.00,2013-05-29 23:11:00,
2013-05-29 19:20:00,85.1,71.6,29.97,ESE,123,0.0,0.0,64,0.00,,BKN055,0.00,VWS V14.00,2013-05-29 23:20:00,
2013-05-29 19:21:00,85.1,71.6,29.97,ESE,123,0.0,0.0,64,0.00,,BKN055,0.00,VWS V14.00,2013-05-29 23:21:00,
2013-05-29 19:30:00,84.7,72.1,29.97,ESE,123,0.0,0.0,66,0.00,,BKN055,0.00,VWS V14.00,2013-05-29 23:30:00,
2013-05-29 19:31:00,84.7,72.1,29.97,ESE,123,0.0,0.0,66,0.00,,BKN055,0.00,VWS V14.00,2013-05-29 23:31:00,
2013-05-29 19:40:00,85.0,71.9,29.97,ESE,123,0.0,0.0,65,0.00,,BKN055,0.00,VWS V14.00,2013-05-29 23:40:00,
2013-05-29 19:41:00,85.0,71.9,29.97,ESE,123,0.0,0.0,65,0.00,,BKN055,0.00,VWS V14.00,2013-05-29 23:41:00,
2013-05-29 19:50:00,84.8,72.6,29.97,ESE,122,0.0,0.0,67,0.00,,BKN055,0.00,VWS V14.00,2013-05-29 23:50:00,
2013-05-29 19:51:00,84.8,72.6,29.97,ESE,122,0.0,0.0,67,0.00,,BKN055,0.00,VWS V14.00,2013-05-29 23:51:00,
2013-05-29 20:00:00,84.4,72.7,29.97,ESE,122,0.0,0.0,68,0.00,,BKN055,0.00,VWS V14.00,2013-05-30 00:00:00,
2013-05-29 20:01:00,84.4,72.7,29.97,ESE,122,0.0,0.0,68,0.00,,BKN055,0.00,VWS V14.00,2013-05-30 00:01:00,
2013-05-29 20:10:00,83.4,71.7,29.97,ESE,123,0.0,0.0,68,0.00,,BKN055,0.00,VWS V14.00,2013-05-30 00:10:00,
2013-05-29 20:11:00,83.4,71.7,29.97,ESE,123,0.0,0.0,68,0.00,,BKN055,0.00,VWS V14.00,2013-05-30 00:11:00,
2013-05-29 20:20:00,82.1,71.8,29.97,ESE,123,0.0,0.0,71,0.00,,BKN055,0.00,VWS V14.00,2013-05-30 00:20:00,
2013-05-29 20:21:00,82.1,71.8,29.97,ESE,123,0.0,0.0,71,0.00,,BKN055,0.00,VWS V14.00,2013-05-30 00:21:00,
2013-05-29 20:30:00,80.9,71.4,29.97,ESE,122,0.0,0.0,73,0.00,,BKN055,0.00,VWS V14.00,2013-05-30 00:30:00,
2013-05-29 20:31:00,80.9,71.4,29.97,ESE,122,0.0,0.0,73,0.00,,BKN055,0.00,VWS V14.00,2013-05-30 00:31:00,
2013-05-29 20:40:00,79.8,70.8,29.97,SSE,154,0.0,0.0,74,0.00,,BKN055,0.00,VWS V14.00,2013-05-30 00:40:00,
2013-05-29 20:41:00,79.8,70.8,29.97,SSE,154,0.0,0.0,74,0.00,,BKN055,0.00,VWS V14.00,2013-05-30 00:41:00,
2013-05-29 20:50:00,78.7,70.9,29.97,SSE,153,0.0,0.0,77,0.00,,BKN055,0.00,VWS V14.00,2013-05-30 00:50:00,
2013-05-29 20:51:00,78.7,70.9,29.97,SSE,153,0.0,0.0,77,0.00,,BKN055,0.00,VWS V14.00,2013-05-30 00:51:00,
2013-05-29 21:00:00,77.6,70.6,29.97,SSE,154,0.0,0.0,79,0.00,,BKN055,0.00,VWS V14.00,2013-05-30 01:00:00,
2013-05-29 21:01:00,77.6,70.6,29.97,SSE,154,0.0,0.0,79,0.00,,BKN055,0.00,VWS V14.00,2013-05-30 01:01:00,
2013-05-29 21:10:00,76.5,70.2,29.97,SSE,153,0.0,0.0,81,0.00,,BKN055,0.00,VWS V14.00,2013-05-30 01:10:00,
2013-05-29 21:11:00,76.5,70.2,29.97,SSE,153,0.0,0.0,81,0.00,,BKN055,0.00,VWS V14.00,2013-05-30 01:11:00,
2013-05-29 21:20:00,75.7,69.8,29.97,SSE,154,0.0,0.0,82,0.00,,BKN055,0.00,VWS V14.00,2013-05-30 01:20:00,
2013-05-29 21:21:00,75.7,69.8,29.97,SSE,154,0.0,0.0,82,0.00,,BKN055,0.00,VWS V14.00,2013-05-30 01:21:00,
2013-05-29 21:30:00,74.7,69.2,29.97,SSE,153,0.0,0.0,83,0.00,,BKN055,0.00,VWS V14.00,2013-05-30 01:30:00,
2013-05-29 21:31:00,74.7,69.2,29.97,SSE,153,0.0,0.0,83,0.00,,BKN055,0.00,VWS V14.00,2013-05-30 01:31:00,
2013-05-29 21:40:00,73.8,68.7,29.98,SSE,153,0.0,0.0,84,0.00,,BKN055,0.00,VWS V14.00,2013-05-30 01:40:00,
2013-05-29 21:41:00,73.8,68.7,29.98,SSE,153,0.0,0.0,84,0.00,,BKN055,0.00,VWS V14.00,2013-05-30 01:41:00,
2013-05-29 21:50:00,73.0,68.6,29.98,SSE,154,0.0,0.0,86,0.00,,BKN055,0.00,VWS V14.00,2013-05-30 01:50:00,
2013-05-29 21:51:00,73.0,68.6,29.98,SSE,154,0.0,0.0,86,0.00,,BKN055,0.00,VWS V14.00,2013-05-30 01:51:00,
2013-05-29 22:00:00,72.4,68.7,29.98,SSE,154,0.0,0.0,88,0.00,,BKN055,0.00,VWS V14.00,2013-05-30 02:00:00,
2013-05-29 22:01:00,72.4,68.7,29.98,SSE,154,0.0,0.0,88,0.00,,BKN055,0.00,VWS V14.00,2013-05-30 02:01:00,
2013-05-29 22:10:00,71.7,68.3,29.98,SSE,154,0.0,1.0,89,0.00,,BKN055,0.00,VWS V14.00,2013-05-30 02:10:00,
2013-05-29 22:11:00,71.7,68.3,29.98,SSE,154,0.0,1.0,89,0.00,,BKN055,0.00,VWS V14.00,2013-05-30 02:11:00,
2013-05-29 22:20:00,71.0,67.9,29.99,SSE,153,0.0,0.0,90,0.00,,BKN055,0.00,VWS V14.00,2013-05-30 02:20:00,
2013-05-29 22:21:00,71.0,67.9,29.99,SSE,153,0.0,0.0,90,0.00,,BKN055,0.00,VWS V14.00,2013-05-30 02:21:00,
2013-05-29 22:30:00,70.5,67.8,29.99,SSE,154,0.0,0.0,91,0.00,,BKN055,0.00,VWS V14.00,2013-05-30 02:30:00,
2013-05-29 22:31:00,70.5,67.8,29.99,SSE,154,0.0,0.0,91,0.00,,BKN055,0.00,VWS V14.00,2013-05-30 02:31:00,
2013-05-29 22:40:00,70.1,67.7,29.99,SSE,153,0.0,0.0,92,0.00,,BKN055,0.00,VWS V14.00,2013-05-30 02:40:00,
2013-05-29 22:41:00,70.1,67.7,29.99,SSE,153,0.0,0.0,92,0.00,,BKN055,0.00,VWS V14.00,2013-05-30 02:41:00,
2013-05-29 22:50:00,69.7,67.3,30.00,SSE,154,0.0,0.0,92,0.00,,BKN055,0.00,VWS V14.00,2013-05-30 02:50:00,
2013-05-29 22:51:00,69.7,67.3,30.00,SSE,154,0.0,0.0,92,0.00,,BKN055,0.00,VWS V14.00,2013-05-30 02:51:00,
2013-05-29 23:00:00,69.3,67.2,30.00,SSE,154,0.0,0.0,93,0.00,,BKN055,0.00,VWS V14.00,2013-05-30 03:00:00,
2013-05-29 23:01:00,69.3,67.2,30.00,SSE,154,0.0,0.0,93,0.00,,BKN055,0.00,VWS V14.00,2013-05-30 03:01:00,
2013-05-29 23:10:00,68.9,67.1,30.00,SSE,153,1.0,1.0,94,0.00,,BKN055,0.00,VWS V14.00,2013-05-30 03:10:00,
2013-05-29 23:11:00,68.9,67.1,30.00,SSE,153,1.0,1.0,94,0.00,,BKN055,0.00,VWS V14.00,2013-05-30 03:11:00,
2013-05-29 23:20:00,68.7,67.2,30.00,SSE,153,0.0,1.0,95,0.00,,BKN055,0.00,VWS V14.00,2013-05-30 03:20:00,
2013-05-29 23:21:00,68.7,67.2,30.00,SSE,153,0.0,1.0,95,0.00,,BKN055,0.00,VWS V14.00,2013-05-30 03:21:00,
2013-05-29 23:30:00,68.5,66.7,30.00,SSE,153,0.0,0.0,94,0.00,,BKN055,0.00,VWS V14.00,2013-05-30 03:30:00,
2013-05-29 23:31:00,68.5,66.7,30.00,SSE,153,0.0,0.0,94,0.00,,BKN055,0.00,VWS V14.00,2013-05-30 03:31:00,
2013-05-29 23:40:00,68.3,66.8,30.00,SSE,153,0.0,0.0,95,0.00,,BKN055,0.00,VWS V14.00,2013-05-30 03:40:00,
2013-05-29 23:41:00,68.3,66.8,30.00,SSE,153,0.0,0.0,95,0.00,,BKN055,0.00,VWS V14.00,2013-05-30 03:41:00,
2013-05-29 23:50:00,68.0,66.5,30.00,SSE,153,0.0,0.0,95,0.00,,BKN055,0.00,VWS V14.00,2013-05-30 03:50:00,
2013-05-29 23:51:00,68.0,66.5,30.00,SSE,153,0.0,0.0,95,0.00,,BKN055,0.00,VWS V14.00,2013-05-30 03:51:00,